sensor_id;sensor_type;location;lat;lon;timestamp;pressure;altitude;pressure_sealevel;temperature;humidity
45763;BME280;37512;52.408;13.356;2023-02-15T00:01:58;102722.94;;;2.57;100.00
45763;BME280;37512;52.408;13.356;2023-02-15T00:05:59;102717.50;;;2.29;100.00
45763;BME280;37512;52.408;13.356;2023-02-15T00:10:01;102732.09;;;2.35;100.00
45763;BME280;37512;52.408;13.356;2023-02-15T00:14:08;102729.38;;;2.40;100.00
45763;BME280;37512;52.408;13.356;2023-02-15T00:18:10;102727.97;;;2.70;100.00
45763;BME280;37512;52.408;13.356;2023-02-15T00:22:11;102712.00;;;2.62;100.00
45763;BME280;37512;52.408;13.356;2023-02-15T00:26:13;102706.84;;;2.65;100.00
45763;BME280;37512;52.408;13.356;2023-02-15T00:30:14;102707.19;;;2.42;100.00
45763;BME280;37512;52.408;13.356;2023-02-15T00:34:21;102707.09;;;2.32;100.00
45763;BME280;37512;52.408;13.356;2023-02-15T00:38:23;102701.16;;;2.40;100.00
45763;BME280;37512;52.408;13.356;2023-02-15T00:42:25;102702.94;;;1.97;100.00
45763;BME280;37512;52.408;13.356;2023-02-15T00:46:26;102705.88;;;2.17;100.00
45763;BME280;37512;52.408;13.356;2023-02-15T00:50:28;102705.72;;;2.29;100.00
45763;BME280;37512;52.408;13.356;2023-02-15T00:54:29;102699.97;;;1.76;100.00
45763;BME280;37512;52.408;13.356;2023-02-15T00:58:31;102704.63;;;2.03;100.00
45763;BME280;37512;52.408;13.356;2023-02-15T01:02:32;102699.09;;;1.98;100.00
45763;BME280;37512;52.408;13.356;2023-02-15T01:06:34;102697.28;;;2.36;100.00
45763;BME280;37512;52.408;13.356;2023-02-15T01:10:35;102690.78;;;2.15;100.00
45763;BME280;37512;52.408;13.356;2023-02-15T01:14:37;102690.41;;;2.33;100.00
45763;BME280;37512;52.408;13.356;2023-02-15T01:18:38;102685.44;;;2.62;100.00
45763;BME280;37512;52.408;13.356;2023-02-15T01:22:40;102680.41;;;2.49;100.00
45763;BME280;37512;52.408;13.356;2023-02-15T01:26:41;102679.78;;;2.42;100.00
45763;BME280;37512;52.408;13.356;2023-02-15T01:30:43;102662.56;;;2.46;100.00
45763;BME280;37512;52.408;13.356;2023-02-15T01:34:44;102656.25;;;2.14;100.00
45763;BME280;37512;52.408;13.356;2023-02-15T01:38:46;102652.97;;;1.84;100.00
45763;BME280;37512;52.408;13.356;2023-02-15T01:42:53;102650.53;;;2.15;100.00
45763;BME280;37512;52.408;13.356;2023-02-15T01:46:55;102643.72;;;2.23;100.00
45763;BME280;37512;52.408;13.356;2023-02-15T01:50:58;102635.31;;;2.35;100.00
45763;BME280;37512;52.408;13.356;2023-02-15T01:55:02;102630.75;;;2.45;100.00
45763;BME280;37512;52.408;13.356;2023-02-15T01:59:09;102627.84;;;2.25;100.00
45763;BME280;37512;52.408;13.356;2023-02-15T02:03:12;102617.03;;;2.08;100.00
45763;BME280;37512;52.408;13.356;2023-02-15T02:07:17;102621.28;;;1.94;100.00
45763;BME280;37512;52.408;13.356;2023-02-15T02:11:20;102619.97;;;1.69;100.00
45763;BME280;37512;52.408;13.356;2023-02-15T02:15:32;102619.13;;;1.68;100.00
45763;BME280;37512;52.408;13.356;2023-02-15T02:29:43;102608.59;;;1.55;100.00
45763;BME280;37512;52.408;13.356;2023-02-15T02:33:59;102607.50;;;1.07;100.00
45763;BME280;37512;52.408;13.356;2023-02-15T02:42:45;102594.94;;;1.33;100.00
45763;BME280;37512;52.408;13.356;2023-02-15T02:47:00;102593.69;;;0.97;100.00
45763;BME280;37512;52.408;13.356;2023-02-15T02:51:03;102591.91;;;0.86;100.00
45763;BME280;37512;52.408;13.356;2023-02-15T02:59:33;102579.72;;;1.42;100.00
45763;BME280;37512;52.408;13.356;2023-02-15T03:03:44;102576.22;;;1.47;100.00
45763;BME280;37512;52.408;13.356;2023-02-15T03:07:49;102576.25;;;1.52;100.00
45763;BME280;37512;52.408;13.356;2023-02-15T03:11:52;102575.41;;;1.46;100.00
45763;BME280;37512;52.408;13.356;2023-02-15T03:15:55;102564.97;;;0.94;100.00
45763;BME280;37512;52.408;13.356;2023-02-15T03:20:22;102562.03;;;1.01;100.00
45763;BME280;37512;52.408;13.356;2023-02-15T03:24:32;102559.88;;;0.81;100.00
45763;BME280;37512;52.408;13.356;2023-02-15T03:28:38;102567.69;;;0.94;100.00
45763;BME280;37512;52.408;13.356;2023-02-15T03:32:43;102563.78;;;0.68;100.00
45763;BME280;37512;52.408;13.356;2023-02-15T03:37:09;102563.06;;;0.17;100.00
45763;BME280;37512;52.408;13.356;2023-02-15T03:41:12;102565.63;;;0.24;100.00
45763;BME280;37512;52.408;13.356;2023-02-15T03:45:18;102559.03;;;0.19;100.00
45763;BME280;37512;52.408;13.356;2023-02-15T03:49:29;102562.81;;;0.35;100.00
45763;BME280;37512;52.408;13.356;2023-02-15T03:53:33;102559.69;;;0.10;100.00
45763;BME280;37512;52.408;13.356;2023-02-15T03:57:35;102556.03;;;0.04;100.00
45763;BME280;37512;52.408;13.356;2023-02-15T04:02:20;102550.41;;;0.11;100.00
45763;BME280;37512;52.408;13.356;2023-02-15T04:06:25;102544.69;;;0.29;100.00
45763;BME280;37512;52.408;13.356;2023-02-15T04:10:26;102541.53;;;0.37;100.00
45763;BME280;37512;52.408;13.356;2023-02-15T04:14:46;102544.69;;;0.29;100.00
45763;BME280;37512;52.408;13.356;2023-02-15T04:19:06;102537.09;;;0.14;100.00
45763;BME280;37512;52.408;13.356;2023-02-15T04:23:25;102535.88;;;0.05;100.00
45763;BME280;37512;52.408;13.356;2023-02-15T04:27:48;102535.59;;;0.07;100.00
45763;BME280;37512;52.408;13.356;2023-02-15T04:31:50;102534.72;;;0.01;100.00
45763;BME280;37512;52.408;13.356;2023-02-15T04:35:52;102524.06;;;-0.17;100.00
45763;BME280;37512;52.408;13.356;2023-02-15T04:39:54;102535.44;;;-0.54;100.00
45763;BME280;37512;52.408;13.356;2023-02-15T04:43:55;102522.66;;;-0.20;100.00
45763;BME280;37512;52.408;13.356;2023-02-15T04:47:57;102504.38;;;-0.19;100.00
45763;BME280;37512;52.408;13.356;2023-02-15T04:51:59;102511.38;;;-0.57;100.00
45763;BME280;37512;52.408;13.356;2023-02-15T04:56:00;102497.50;;;-0.22;100.00
45763;BME280;37512;52.408;13.356;2023-02-15T05:00:02;102494.84;;;-0.51;100.00
45763;BME280;37512;52.408;13.356;2023-02-15T05:04:04;102478.97;;;-0.20;100.00
45763;BME280;37512;52.408;13.356;2023-02-15T05:08:05;102478.47;;;-0.17;100.00
45763;BME280;37512;52.408;13.356;2023-02-15T05:12:07;102470.63;;;-0.13;100.00
45763;BME280;37512;52.408;13.356;2023-02-15T05:16:08;102476.41;;;-0.10;100.00
45763;BME280;37512;52.408;13.356;2023-02-15T05:20:10;102466.97;;;-0.02;100.00
45763;BME280;37512;52.408;13.356;2023-02-15T05:24:12;102474.59;;;-0.04;100.00
45763;BME280;37512;52.408;13.356;2023-02-15T05:28:31;102467.38;;;-0.10;100.00
45763;BME280;37512;52.408;13.356;2023-02-15T05:32:33;102474.41;;;-0.14;100.00
45763;BME280;37512;52.408;13.356;2023-02-15T05:36:35;102467.97;;;-0.08;100.00
45763;BME280;37512;52.408;13.356;2023-02-15T05:40:36;102463.00;;;-0.11;100.00
45763;BME280;37512;52.408;13.356;2023-02-15T05:44:37;102465.16;;;-0.13;100.00
45763;BME280;37512;52.408;13.356;2023-02-15T05:48:39;102461.03;;;-0.16;100.00
45763;BME280;37512;52.408;13.356;2023-02-15T05:52:40;102453.97;;;-0.12;100.00
45763;BME280;37512;52.408;13.356;2023-02-15T05:56:42;102456.22;;;-0.26;100.00
45763;BME280;37512;52.408;13.356;2023-02-15T06:00:43;102455.25;;;-0.36;100.00
45763;BME280;37512;52.408;13.356;2023-02-15T06:04:45;102460.78;;;-0.31;100.00
45763;BME280;37512;52.408;13.356;2023-02-15T06:08:46;102460.97;;;-0.38;100.00
45763;BME280;37512;52.408;13.356;2023-02-15T06:12:48;102455.81;;;-0.34;100.00
45763;BME280;37512;52.408;13.356;2023-02-15T06:16:50;102457.16;;;-0.37;100.00
45763;BME280;37512;52.408;13.356;2023-02-15T06:20:52;102469.72;;;-0.36;100.00
45763;BME280;37512;52.408;13.356;2023-02-15T06:24:53;102473.13;;;-0.46;100.00
45763;BME280;37512;52.408;13.356;2023-02-15T06:28:55;102468.16;;;-0.32;100.00
45763;BME280;37512;52.408;13.356;2023-02-15T06:32:56;102457.47;;;-0.50;100.00
45763;BME280;37512;52.408;13.356;2023-02-15T06:36:57;102465.50;;;-0.60;100.00
45763;BME280;37512;52.408;13.356;2023-02-15T06:40:59;102464.84;;;-0.68;100.00
45763;BME280;37512;52.408;13.356;2023-02-15T06:45:00;102450.94;;;-0.83;100.00
45763;BME280;37512;52.408;13.356;2023-02-15T06:49:02;102449.28;;;-0.84;100.00
45763;BME280;37512;52.408;13.356;2023-02-15T06:53:03;102445.31;;;-0.76;100.00
45763;BME280;37512;52.408;13.356;2023-02-15T06:57:05;102448.97;;;-0.71;100.00
45763;BME280;37512;52.408;13.356;2023-02-15T07:01:07;102455.25;;;-0.70;100.00
45763;BME280;37512;52.408;13.356;2023-02-15T07:05:09;102445.31;;;-0.93;100.00
45763;BME280;37512;52.408;13.356;2023-02-15T07:09:11;102450.97;;;-1.12;100.00
45763;BME280;37512;52.408;13.356;2023-02-15T07:13:14;102444.31;;;-0.87;100.00
45763;BME280;37512;52.408;13.356;2023-02-15T07:17:15;102448.47;;;-0.68;100.00
45763;BME280;37512;52.408;13.356;2023-02-15T07:21:36;102442.94;;;-0.73;100.00
45763;BME280;37512;52.408;13.356;2023-02-15T07:25:37;102435.66;;;-0.67;100.00
45763;BME280;37512;52.408;13.356;2023-02-15T07:29:39;102422.41;;;-0.92;100.00
45763;BME280;37512;52.408;13.356;2023-02-15T07:33:41;102426.16;;;-0.65;100.00
45763;BME280;37512;52.408;13.356;2023-02-15T07:37:42;102424.50;;;-0.32;100.00
45763;BME280;37512;52.408;13.356;2023-02-15T07:41:44;102421.34;;;-0.57;100.00
45763;BME280;37512;52.408;13.356;2023-02-15T07:45:45;102417.38;;;-0.83;100.00
45763;BME280;37512;52.408;13.356;2023-02-15T07:49:46;102417.72;;;-0.80;100.00
45763;BME280;37512;52.408;13.356;2023-02-15T07:53:50;102419.31;;;-0.84;100.00
45763;BME280;37512;52.408;13.356;2023-02-15T07:57:52;102406.00;;;-0.64;100.00
45763;BME280;37512;52.408;13.356;2023-02-15T08:01:55;102413.53;;;-0.71;100.00
45763;BME280;37512;52.408;13.356;2023-02-15T08:05:59;102401.13;;;-0.78;100.00
45763;BME280;37512;52.408;13.356;2023-02-15T08:10:01;102408.44;;;-1.13;100.00
45763;BME280;37512;52.408;13.356;2023-02-15T08:14:11;102402.09;;;-1.01;100.00
45763;BME280;37512;52.408;13.356;2023-02-15T08:18:12;102400.09;;;-0.89;100.00
45763;BME280;37512;52.408;13.356;2023-02-15T08:22:14;102396.97;;;-0.81;100.00
45763;BME280;37512;52.408;13.356;2023-02-15T08:26:16;102394.66;;;-0.55;100.00
45763;BME280;37512;52.408;13.356;2023-02-15T08:30:18;102392.53;;;-0.70;100.00
45763;BME280;37512;52.408;13.356;2023-02-15T08:34:20;102393.69;;;-0.49;100.00
45763;BME280;37512;52.408;13.356;2023-02-15T08:38:22;102392.50;;;-0.36;100.00
45763;BME280;37512;52.408;13.356;2023-02-15T08:42:23;102384.22;;;-0.42;100.00
45763;BME280;37512;52.408;13.356;2023-02-15T08:46:27;102382.44;;;-0.14;100.00
45763;BME280;37512;52.408;13.356;2023-02-15T08:50:30;102381.09;;;-0.50;100.00
45763;BME280;37512;52.408;13.356;2023-02-15T08:54:31;102374.91;;;-0.07;100.00
45763;BME280;37512;52.408;13.356;2023-02-15T08:58:33;102360.69;;;-0.09;100.00
45763;BME280;37512;52.408;13.356;2023-02-15T09:02:35;102368.25;;;-0.16;100.00
45763;BME280;37512;52.408;13.356;2023-02-15T09:06:38;102353.06;;;0.15;100.00
45763;BME280;37512;52.408;13.356;2023-02-15T09:10:40;102348.78;;;0.25;100.00
45763;BME280;37512;52.408;13.356;2023-02-15T09:14:42;102348.78;;;0.47;100.00
45763;BME280;37512;52.408;13.356;2023-02-15T09:18:43;102345.44;;;0.39;100.00
45763;BME280;37512;52.408;13.356;2023-02-15T09:22:45;102347.25;;;0.56;100.00
45763;BME280;37512;52.408;13.356;2023-02-15T09:26:48;102342.00;;;0.27;100.00
45763;BME280;37512;52.408;13.356;2023-02-15T09:30:49;102349.75;;;0.62;100.00
45763;BME280;37512;52.408;13.356;2023-02-15T09:34:51;102346.88;;;0.47;100.00
45763;BME280;37512;52.408;13.356;2023-02-15T09:39:04;102348.31;;;1.14;100.00
45763;BME280;37512;52.408;13.356;2023-02-15T09:43:38;102359.28;;;1.19;100.00
45763;BME280;37512;52.408;13.356;2023-02-15T09:56:39;102339.72;;;1.80;100.00
45763;BME280;37512;52.408;13.356;2023-02-15T10:05:21;102329.59;;;1.81;100.00
45763;BME280;37512;52.408;13.356;2023-02-15T10:19:03;102327.03;;;2.32;100.00
45763;BME280;37512;52.408;13.356;2023-02-15T10:27:52;102310.38;;;2.49;100.00
45763;BME280;37512;52.408;13.356;2023-02-15T10:40:46;102285.97;;;2.99;100.00
45763;BME280;37512;52.408;13.356;2023-02-15T10:45:05;102285.72;;;2.75;100.00
45763;BME280;37512;52.408;13.356;2023-02-15T10:49:18;102280.50;;;2.88;100.00
45763;BME280;37512;52.408;13.356;2023-02-15T11:06:44;102273.84;;;4.11;100.00
45763;BME280;37512;52.408;13.356;2023-02-15T11:11:10;102272.56;;;4.43;100.00
45763;BME280;37512;52.408;13.356;2023-02-15T11:15:36;102271.03;;;4.95;100.00
45763;BME280;37512;52.408;13.356;2023-02-15T11:24:20;102249.84;;;5.73;100.00
45763;BME280;37512;52.408;13.356;2023-02-15T11:28:41;102238.06;;;6.48;100.00
45763;BME280;37512;52.408;13.356;2023-02-15T11:32:46;102241.09;;;6.98;100.00
45763;BME280;37512;52.408;13.356;2023-02-15T11:36:52;102230.81;;;7.45;100.00
45763;BME280;37512;52.408;13.356;2023-02-15T11:41:10;102220.97;;;7.81;100.00
45763;BME280;37512;52.408;13.356;2023-02-15T11:45:31;102219.44;;;7.74;100.00
45763;BME280;37512;52.408;13.356;2023-02-15T11:49:34;102212.50;;;7.22;100.00
45763;BME280;37512;52.408;13.356;2023-02-15T11:53:37;102204.63;;;8.66;100.00
45763;BME280;37512;52.408;13.356;2023-02-15T11:57:42;102211.81;;;8.67;98.98
45763;BME280;37512;52.408;13.356;2023-02-15T12:01:46;102210.53;;;8.73;94.01
45763;BME280;37512;52.408;13.356;2023-02-15T12:05:53;102203.13;;;8.01;100.00
45763;BME280;37512;52.408;13.356;2023-02-15T12:14:02;102206.81;;;8.77;100.00
45763;BME280;37512;52.408;13.356;2023-02-15T12:18:04;102209.69;;;9.83;93.04
45763;BME280;37512;52.408;13.356;2023-02-15T12:22:19;102206.25;;;9.87;92.43
45763;BME280;37512;52.408;13.356;2023-02-15T12:26:31;102201.91;;;10.29;88.12
45763;BME280;37512;52.408;13.356;2023-02-15T12:30:37;102187.28;;;9.71;90.35
45763;BME280;37512;52.408;13.356;2023-02-15T12:34:39;102181.44;;;9.99;89.06
45763;BME280;37512;52.408;13.356;2023-02-15T12:38:42;102172.25;;;11.24;79.03
45763;BME280;37512;52.408;13.356;2023-02-15T12:42:44;102167.47;;;11.63;76.15
45763;BME280;37512;52.408;13.356;2023-02-15T12:46:56;102162.06;;;11.66;75.85
45763;BME280;37512;52.408;13.356;2023-02-15T12:51:08;102156.78;;;11.44;71.45
45763;BME280;37512;52.408;13.356;2023-02-15T12:55:24;102142.59;;;10.60;80.97
45763;BME280;37512;52.408;13.356;2023-02-15T12:59:26;102143.94;;;11.30;76.51
45763;BME280;37512;52.408;13.356;2023-02-15T13:03:28;102145.59;;;11.82;72.59
45763;BME280;37512;52.408;13.356;2023-02-15T13:07:30;102134.44;;;12.24;68.00
45763;BME280;37512;52.408;13.356;2023-02-15T13:11:33;102132.19;;;10.31;79.13
45763;BME280;37512;52.408;13.356;2023-02-15T13:15:37;102127.97;;;11.48;73.71
45763;BME280;37512;52.408;13.356;2023-02-15T13:19:47;102124.69;;;11.76;68.94
45763;BME280;37512;52.408;13.356;2023-02-15T13:24:33;102118.53;;;11.91;68.37
45763;BME280;37512;52.408;13.356;2023-02-15T13:28:15;102111.19;;;11.66;67.82
45763;BME280;37512;52.408;13.356;2023-02-15T13:32:30;102108.00;;;11.25;73.61
45763;BME280;37512;52.408;13.356;2023-02-15T13:41:04;102090.50;;;11.76;70.55
45763;BME280;37512;52.408;13.356;2023-02-15T13:49:54;102077.72;;;12.99;62.53
45763;BME280;37512;52.408;13.356;2023-02-15T14:15:58;102083.38;;;14.64;55.25
45763;BME280;37512;52.408;13.356;2023-02-15T14:20:11;102089.38;;;14.35;54.53
45763;BME280;37512;52.408;13.356;2023-02-15T14:28:29;102081.78;;;15.31;52.53
45763;BME280;37512;52.408;13.356;2023-02-15T14:32:41;102075.72;;;14.17;56.50
45763;BME280;37512;52.408;13.356;2023-02-15T14:36:43;102055.63;;;14.88;53.11
45763;BME280;37512;52.408;13.356;2023-02-15T14:49:30;102066.63;;;14.20;51.76
45763;BME280;37512;52.408;13.356;2023-02-15T14:53:37;102062.03;;;13.44;55.25
45763;BME280;37512;52.408;13.356;2023-02-15T14:57:55;102054.41;;;13.69;54.58
45763;BME280;37512;52.408;13.356;2023-02-15T15:02:04;102055.41;;;13.48;55.04
45763;BME280;37512;52.408;13.356;2023-02-15T15:06:28;102049.94;;;13.27;55.31
45763;BME280;37512;52.408;13.356;2023-02-15T15:10:39;102048.72;;;12.75;57.33
45763;BME280;37512;52.408;13.356;2023-02-15T15:14:43;102043.13;;;13.00;57.43
45763;BME280;37512;52.408;13.356;2023-02-15T15:18:47;102045.44;;;13.10;56.68
45763;BME280;37512;52.408;13.356;2023-02-15T15:22:49;102034.44;;;13.54;56.10
45763;BME280;37512;52.408;13.356;2023-02-15T15:31:47;102052.09;;;12.23;61.25
45763;BME280;37512;52.408;13.356;2023-02-15T15:45:32;102051.47;;;11.84;65.21
45763;BME280;37512;52.408;13.356;2023-02-15T15:49:38;102051.50;;;11.13;67.84
45763;BME280;37512;52.408;13.356;2023-02-15T15:53:44;102053.72;;;11.28;70.39
45763;BME280;37512;52.408;13.356;2023-02-15T15:58:02;102047.97;;;11.54;68.06
45763;BME280;37512;52.408;13.356;2023-02-15T16:02:06;102033.03;;;11.17;68.90
45763;BME280;37512;52.408;13.356;2023-02-15T16:06:13;102038.25;;;11.18;69.96
45763;BME280;37512;52.408;13.356;2023-02-15T16:10:27;102038.50;;;11.04;71.40
45763;BME280;37512;52.408;13.356;2023-02-15T16:14:38;102032.94;;;11.04;71.40
45763;BME280;37512;52.408;13.356;2023-02-15T16:18:40;102022.28;;;10.47;76.70
45763;BME280;37512;52.408;13.356;2023-02-15T16:22:53;102022.97;;;10.35;77.12
45763;BME280;37512;52.408;13.356;2023-02-15T16:27:16;102015.53;;;10.01;79.29
45763;BME280;37512;52.408;13.356;2023-02-15T16:31:21;102011.50;;;9.20;84.69
45763;BME280;37512;52.408;13.356;2023-02-15T16:35:25;102010.22;;;8.69;90.07
45763;BME280;37512;52.408;13.356;2023-02-15T16:39:27;102016.84;;;8.28;94.68
45763;BME280;37512;52.408;13.356;2023-02-15T16:43:31;102024.22;;;8.01;100.00
45763;BME280;37512;52.408;13.356;2023-02-15T16:47:39;102020.06;;;8.12;100.00
45763;BME280;37512;52.408;13.356;2023-02-15T16:51:43;102012.94;;;8.51;93.93
45763;BME280;37512;52.408;13.356;2023-02-15T16:55:52;102015.53;;;8.16;94.97
45763;BME280;37512;52.408;13.356;2023-02-15T16:59:59;102016.72;;;8.02;97.42
45763;BME280;37512;52.408;13.356;2023-02-15T17:04:27;102013.22;;;7.87;97.53
45763;BME280;37512;52.408;13.356;2023-02-15T17:08:34;102023.22;;;6.88;100.00
45763;BME280;37512;52.408;13.356;2023-02-15T17:12:53;102024.19;;;7.20;100.00
45763;BME280;37512;52.408;13.356;2023-02-15T17:17:01;102013.28;;;7.15;100.00
45763;BME280;37512;52.408;13.356;2023-02-15T17:21:12;102011.44;;;7.46;100.00
45763;BME280;37512;52.408;13.356;2023-02-15T17:25:20;102010.81;;;7.49;100.00
45763;BME280;37512;52.408;13.356;2023-02-15T17:29:31;102011.44;;;7.10;100.00
45763;BME280;37512;52.408;13.356;2023-02-15T17:33:37;102009.84;;;6.54;100.00
45763;BME280;37512;52.408;13.356;2023-02-15T17:41:42;102009.22;;;6.98;100.00
45763;BME280;37512;52.408;13.356;2023-02-15T17:45:48;102007.31;;;6.71;100.00
45763;BME280;37512;52.408;13.356;2023-02-15T17:49:50;102001.56;;;5.93;100.00
45763;BME280;37512;52.408;13.356;2023-02-15T17:53:52;102005.84;;;6.18;100.00
45763;BME280;37512;52.408;13.356;2023-02-15T17:58:16;102005.38;;;5.97;100.00
45763;BME280;37512;52.408;13.356;2023-02-15T18:02:19;102009.19;;;5.82;100.00
45763;BME280;37512;52.408;13.356;2023-02-15T18:06:41;102008.63;;;5.99;100.00
45763;BME280;37512;52.408;13.356;2023-02-15T18:11:02;102000.63;;;6.31;100.00
45763;BME280;37512;52.408;13.356;2023-02-15T18:15:22;101997.63;;;5.99;100.00
45763;BME280;37512;52.408;13.356;2023-02-15T18:19:25;101998.06;;;5.87;100.00
45763;BME280;37512;52.408;13.356;2023-02-15T18:23:27;101996.72;;;6.04;100.00
45763;BME280;37512;52.408;13.356;2023-02-15T18:27:28;101990.25;;;5.24;100.00
45763;BME280;37512;52.408;13.356;2023-02-15T18:31:30;101982.63;;;5.73;100.00
45763;BME280;37512;52.408;13.356;2023-02-15T18:35:32;101982.00;;;5.43;100.00
45763;BME280;37512;52.408;13.356;2023-02-15T18:39:37;101986.28;;;5.49;100.00
45763;BME280;37512;52.408;13.356;2023-02-15T18:43:45;101985.06;;;5.22;100.00
45763;BME280;37512;52.408;13.356;2023-02-15T18:47:47;101989.97;;;5.26;100.00
45763;BME280;37512;52.408;13.356;2023-02-15T18:51:49;101982.16;;;5.33;100.00
45763;BME280;37512;52.408;13.356;2023-02-15T18:55:51;101985.28;;;5.26;100.00
45763;BME280;37512;52.408;13.356;2023-02-15T18:59:52;101982.09;;;5.19;100.00
45763;BME280;37512;52.408;13.356;2023-02-15T19:03:54;101980.22;;;5.14;100.00
45763;BME280;37512;52.408;13.356;2023-02-15T19:07:57;101981.31;;;4.94;100.00
45763;BME280;37512;52.408;13.356;2023-02-15T19:11:59;101977.38;;;4.81;100.00
45763;BME280;37512;52.408;13.356;2023-02-15T19:16:01;101965.84;;;4.79;100.00
45763;BME280;37512;52.408;13.356;2023-02-15T19:20:05;101969.91;;;4.63;100.00
45763;BME280;37512;52.408;13.356;2023-02-15T19:24:13;101967.91;;;4.69;100.00
45763;BME280;37512;52.408;13.356;2023-02-15T19:28:32;101955.19;;;4.54;100.00
45763;BME280;37512;52.408;13.356;2023-02-15T19:32:34;101944.22;;;4.49;100.00
45763;BME280;37512;52.408;13.356;2023-02-15T19:36:36;101943.69;;;4.47;100.00
45763;BME280;37512;52.408;13.356;2023-02-15T19:40:37;101940.91;;;4.28;100.00
45763;BME280;37512;52.408;13.356;2023-02-15T19:44:39;101933.59;;;4.18;100.00
45763;BME280;37512;52.408;13.356;2023-02-15T19:48:43;101935.16;;;4.24;100.00
45763;BME280;37512;52.408;13.356;2023-02-15T19:52:45;101927.38;;;3.83;100.00
45763;BME280;37512;52.408;13.356;2023-02-15T19:56:47;101925.88;;;4.20;100.00
45763;BME280;37512;52.408;13.356;2023-02-15T20:00:49;101914.06;;;3.95;100.00
45763;BME280;37512;52.408;13.356;2023-02-15T20:04:51;101916.81;;;3.95;100.00
45763;BME280;37512;52.408;13.356;2023-02-15T20:08:53;101914.06;;;3.95;100.00
45763;BME280;37512;52.408;13.356;2023-02-15T20:12:56;101904.78;;;4.15;100.00
45763;BME280;37512;52.408;13.356;2023-02-15T20:16:57;101895.19;;;4.13;100.00
45763;BME280;37512;52.408;13.356;2023-02-15T20:20:59;101888.94;;;3.83;100.00
45763;BME280;37512;52.408;13.356;2023-02-15T20:25:03;101892.47;;;4.08;100.00
45763;BME280;37512;52.408;13.356;2023-02-15T20:29:05;101893.69;;;4.02;100.00
45763;BME280;37512;52.408;13.356;2023-02-15T20:33:07;101897.59;;;3.66;100.00
45763;BME280;37512;52.408;13.356;2023-02-15T20:37:17;101892.19;;;3.85;100.00
45763;BME280;37512;52.408;13.356;2023-02-15T20:41:20;101894.38;;;3.88;100.00
45763;BME280;37512;52.408;13.356;2023-02-15T20:45:39;101891.84;;;3.92;100.00
45763;BME280;37512;52.408;13.356;2023-02-15T20:49:40;101895.13;;;3.65;100.00
45763;BME280;37512;52.408;13.356;2023-02-15T20:53:42;101899.53;;;3.66;100.00
45763;BME280;37512;52.408;13.356;2023-02-15T20:57:44;101896.16;;;3.45;100.00
45763;BME280;37512;52.408;13.356;2023-02-15T21:01:46;101904.09;;;3.12;100.00
45763;BME280;37512;52.408;13.356;2023-02-15T21:05:48;101906.47;;;2.84;100.00
45763;BME280;37512;52.408;13.356;2023-02-15T21:09:50;101910.75;;;3.01;100.00
45763;BME280;37512;52.408;13.356;2023-02-15T21:13:54;101907.53;;;3.28;100.00
45763;BME280;37512;52.408;13.356;2023-02-15T21:17:57;101901.72;;;3.34;100.00
45763;BME280;37512;52.408;13.356;2023-02-15T21:21:59;101910.50;;;3.37;100.00
45763;BME280;37512;52.408;13.356;2023-02-15T21:26:01;101896.06;;;3.21;100.00
45763;BME280;37512;52.408;13.356;2023-02-15T21:30:12;101901.81;;;3.24;100.00
45763;BME280;37512;52.408;13.356;2023-02-15T21:34:14;101890.28;;;2.88;100.00
45763;BME280;37512;52.408;13.356;2023-02-15T21:38:21;101901.88;;;2.75;100.00
45763;BME280;37512;52.408;13.356;2023-02-15T21:42:24;101900.56;;;2.62;100.00
45763;BME280;37512;52.408;13.356;2023-02-15T21:46:44;101901.41;;;2.62;100.00
45763;BME280;37512;52.408;13.356;2023-02-15T21:51:04;101905.78;;;3.42;100.00
45763;BME280;37512;52.408;13.356;2023-02-15T21:55:25;101901.81;;;3.53;100.00
45763;BME280;37512;52.408;13.356;2023-02-15T21:59:27;101902.56;;;3.30;100.00
45763;BME280;37512;52.408;13.356;2023-02-15T22:03:34;101904.66;;;3.09;100.00
45763;BME280;37512;52.408;13.356;2023-02-15T22:07:36;101898.50;;;2.88;100.00
45763;BME280;37512;52.408;13.356;2023-02-15T22:11:37;101887.53;;;2.88;100.00
45763;BME280;37512;52.408;13.356;2023-02-15T22:15:39;101890.72;;;3.00;100.00
45763;BME280;37512;52.408;13.356;2023-02-15T22:19:43;101886.50;;;2.79;100.00
45763;BME280;37512;52.408;13.356;2023-02-15T22:23:45;101897.44;;;2.84;100.00
45763;BME280;37512;52.408;13.356;2023-02-15T22:27:48;101894.84;;;2.58;100.00
45763;BME280;37512;52.408;13.356;2023-02-15T22:31:50;101888.16;;;2.75;100.00
45763;BME280;37512;52.408;13.356;2023-02-15T22:35:53;101884.72;;;2.48;100.00
45763;BME280;37512;52.408;13.356;2023-02-15T22:39:55;101888.63;;;2.42;100.00
45763;BME280;37512;52.408;13.356;2023-02-15T22:43:56;101892.41;;;2.51;100.00
45763;BME280;37512;52.408;13.356;2023-02-15T22:47:59;101890.78;;;2.45;100.00
45763;BME280;37512;52.408;13.356;2023-02-15T22:52:00;101874.03;;;2.52;100.00
45763;BME280;37512;52.408;13.356;2023-02-15T22:56:05;101873.03;;;2.38;100.00
45763;BME280;37512;52.408;13.356;2023-02-15T23:00:08;101873.88;;;2.23;100.00
45763;BME280;37512;52.408;13.356;2023-02-15T23:04:15;101873.28;;;2.36;100.00
45763;BME280;37512;52.408;13.356;2023-02-15T23:08:18;101876.94;;;2.21;100.00
45763;BME280;37512;52.408;13.356;2023-02-15T23:16:21;101875.38;;;1.95;100.00
45763;BME280;37512;52.408;13.356;2023-02-15T23:20:22;101880.06;;;1.68;100.00
45763;BME280;37512;52.408;13.356;2023-02-15T23:24:28;101886.97;;;1.40;100.00
45763;BME280;37512;52.408;13.356;2023-02-15T23:28:37;101886.13;;;1.55;100.00